Time;durP1;ratioP1;P1;durP2;ratioP2;P2;SDS_P1;SDS_P2;PMS_P1;PMS_P2;Temp;Humidity;BMP_temperature;BMP_pressure;BME280_temperature;BME280_humidity;BME280_pressure;Samples;Min_cycle;Max_cycle;Signal;HPM_P1;HPM_P2
2024/04/09 00:02:54;;;;;;;18.65;3.40;;;15.20;99.90;;;;;;7343901;32;20755;-56
2024/04/09 00:06:55;;;;;;;18.48;3.60;;;15.30;99.90;;;;;;7336340;32;20132;-57
2024/04/09 00:10:56;;;;;;;16.95;3.50;;;15.20;99.90;;;;;;7333111;32;20134;-56
2024/04/09 00:14:57;;;;;;;12.05;3.28;;;15.20;99.90;;;;;;7343831;32;20243;-56
2024/04/09 00:18:58;;;;;;;18.17;3.60;;;15.40;99.90;;;;;;7331757;32;20287;-56
2024/04/09 00:22:59;;;;;;;20.77;3.58;;;15.50;99.90;;;;;;7345381;32;20115;-56
2024/04/09 00:27:04;;;;;;;20.35;3.37;;;15.70;99.90;;;;;;7339943;32;20145;-56
2024/04/09 00:31:04;;;;;;;18.45;3.40;;;15.80;99.90;;;;;;7339226;32;20126;-56
2024/04/09 00:35:08;;;;;;;18.45;3.05;;;16.00;99.90;;;;;;7329852;32;20134;-56
2024/04/09 00:39:22;;;;;;;18.15;3.00;;;16.40;99.90;;;;;;7341503;32;20217;-56
2024/04/09 00:43:23;;;;;;;21.73;3.08;;;16.70;99.90;;;;;;7337500;32;20512;-56
2024/04/09 00:47:24;;;;;;;14.45;3.17;;;16.90;99.90;;;;;;7342457;32;20115;-56
2024/04/09 00:51:27;;;;;;;14.40;3.17;;;17.10;99.90;;;;;;7339367;32;20103;-56
2024/04/09 00:55:30;;;;;;;16.20;3.30;;;17.10;99.90;;;;;;7340749;32;20203;-56
2024/04/09 00:59:34;;;;;;;18.08;3.75;;;17.30;99.90;;;;;;7335649;32;20107;-56
2024/04/09 01:03:35;;;;;;;16.73;2.80;;;17.40;99.90;;;;;;7341242;32;20158;-56
2024/04/09 01:07:37;;;;;;;15.98;3.20;;;17.30;99.90;;;;;;7341869;32;20158;-56
2024/04/09 01:11:38;;;;;;;18.02;3.00;;;17.20;99.90;;;;;;7341179;32;20130;-56
2024/04/09 01:15:39;;;;;;;18.00;3.70;;;17.00;99.90;;;;;;7341788;32;20127;-56
2024/04/09 01:19:41;;;;;;;12.77;3.03;;;16.90;99.90;;;;;;7341689;32;20106;-56
2024/04/09 01:23:42;;;;;;;15.43;3.67;;;16.80;99.90;;;;;;7335734;32;20181;-56
2024/04/09 01:27:43;;;;;;;18.05;3.25;;;16.70;99.90;;;;;;7343583;32;20134;-57
2024/04/09 01:31:44;;;;;;;18.90;3.72;;;16.60;99.90;;;;;;7343078;32;20210;-56
2024/04/09 01:35:46;;;;;;;16.52;2.97;;;16.50;99.90;;;;;;7333338;32;20118;-57
2024/04/09 01:39:48;;;;;;;14.30;3.05;;;16.40;99.90;;;;;;7338843;32;20138;-56
2024/04/09 01:43:50;;;;;;;17.55;3.55;;;16.30;99.90;;;;;;7343946;32;20305;-56
2024/04/09 01:47:51;;;;;;;17.55;2.65;;;16.20;99.90;;;;;;7346276;32;20180;-56
2024/04/09 01:51:51;;;;;;;18.62;3.22;;;16.10;99.90;;;;;;7338420;32;20250;-56
2024/04/09 01:55:59;;;;;;;19.95;3.67;;;16.10;99.90;;;;;;7345230;32;20223;-57
2024/04/09 02:00:11;;;;;;;18.20;3.03;;;16.10;99.90;;;;;;7349114;32;20585;-57
2024/04/09 02:04:12;;;;;;;19.20;3.62;;;15.90;99.90;;;;;;7342729;32;20127;-57
2024/04/09 02:08:13;;;;;;;11.10;3.40;;;15.90;99.90;;;;;;7349478;32;20756;-57
2024/04/09 02:12:14;;;;;;;14.70;2.80;;;15.70;99.90;;;;;;7341276;32;20250;-58
2024/04/09 02:16:16;;;;;;;14.87;3.17;;;15.70;99.90;;;;;;7332931;32;20233;-58
2024/04/09 02:20:17;;;;;;;14.15;3.00;;;15.60;99.90;;;;;;7338727;32;20193;-56
2024/04/09 02:24:18;;;;;;;12.50;2.80;;;15.50;99.90;;;;;;7347108;32;20245;-57
2024/04/09 02:28:19;;;;;;;15.70;3.33;;;15.30;99.90;;;;;;7341675;32;20193;-57
2024/04/09 02:32:20;;;;;;;16.85;3.85;;;15.30;99.90;;;;;;7340087;32;20103;-57
2024/04/09 02:36:21;;;;;;;10.15;2.83;;;15.30;99.90;;;;;;7345632;32;20223;-58
2024/04/09 02:40:21;;;;;;;12.65;2.50;;;15.10;99.90;;;;;;7348117;32;20146;-58
2024/04/09 02:44:22;;;;;;;15.20;2.67;;;15.00;99.90;;;;;;7343032;32;20108;-58
2024/04/09 02:48:23;;;;;;;16.73;2.90;;;14.90;99.90;;;;;;7344022;32;20153;-57
2024/04/09 02:52:24;;;;;;;13.45;2.75;;;14.80;99.90;;;;;;7347084;32;20777;-58
2024/04/09 02:56:25;;;;;;;18.08;3.15;;;14.70;99.90;;;;;;7341290;32;20106;-56
2024/04/09 03:00:26;;;;;;;12.23;3.10;;;14.50;99.90;;;;;;7343621;32;22005;-57
2024/04/09 03:04:27;;;;;;;15.32;2.65;;;14.50;99.90;;;;;;7345115;32;20766;-57
2024/04/09 03:08:28;;;;;;;10.85;3.17;;;14.40;99.90;;;;;;7344640;32;20255;-57
2024/04/09 03:12:28;;;;;;;12.23;2.62;;;14.30;99.90;;;;;;7344483;32;20310;-58
2024/04/09 03:16:29;;;;;;;14.23;3.12;;;14.20;99.90;;;;;;7342882;32;20123;-58
2024/04/09 03:20:31;;;;;;;14.43;2.80;;;14.20;99.90;;;;;;7334611;32;20246;-57
2024/04/09 03:24:31;;;;;;;11.38;3.00;;;14.10;99.90;;;;;;7344849;32;20382;-56
2024/04/09 03:28:33;;;;;;;10.70;2.87;;;14.00;99.90;;;;;;7339476;32;20137;-57
2024/04/09 03:32:34;;;;;;;13.65;3.05;;;14.00;99.90;;;;;;7348728;32;20794;-57
2024/04/09 03:36:34;;;;;;;13.50;3.03;;;14.00;99.90;;;;;;7343865;32;20104;-57
2024/04/09 03:40:35;;;;;;;10.75;3.08;;;14.10;99.90;;;;;;7342138;32;20119;-57
2024/04/09 03:44:36;;;;;;;17.77;3.00;;;14.10;99.90;;;;;;7344624;32;20147;-57
2024/04/09 03:48:39;;;;;;;16.27;3.12;;;14.10;99.90;;;;;;7341188;32;20459;-57
2024/04/09 03:52:40;;;;;;;15.32;3.35;;;14.20;99.90;;;;;;7342119;32;20194;-57
2024/04/09 03:56:40;;;;;;;15.02;2.60;;;14.20;99.90;;;;;;7343623;32;20691;-57
2024/04/09 04:00:41;;;;;;;10.50;3.17;;;14.40;99.90;;;;;;7334635;32;20212;-57
2024/04/09 04:04:42;;;;;;;11.20;3.08;;;14.40;99.90;;;;;;7339818;32;20237;-57
2024/04/09 04:08:44;;;;;;;12.52;2.70;;;14.40;99.90;;;;;;7339004;32;20242;-56
2024/04/09 04:12:45;;;;;;;13.15;2.87;;;14.40;99.90;;;;;;7330619;32;20732;-56
2024/04/09 04:16:46;;;;;;;12.18;2.33;;;14.50;99.90;;;;;;7340864;32;20198;-58
2024/04/09 04:20:53;;;;;;;10.65;2.10;;;14.60;99.90;;;;;;7333642;32;20129;-57
2024/04/09 04:24:55;;;;;;;8.48;1.62;;;14.80;99.90;;;;;;7327958;32;20230;-57
2024/04/09 04:28:55;;;;;;;8.48;1.67;;;14.80;99.90;;;;;;7341634;32;20459;-55
2024/04/09 04:32:56;;;;;;;10.70;1.83;;;14.80;99.90;;;;;;7340027;32;20107;-58
2024/04/09 04:36:57;;;;;;;10.13;1.73;;;14.80;99.90;;;;;;7339843;32;20108;-60
2024/04/09 04:40:58;;;;;;;13.52;2.15;;;14.70;99.90;;;;;;7332935;32;20194;-56
2024/04/09 04:44:59;;;;;;;7.57;1.58;;;14.70;99.90;;;;;;7332911;32;20122;-55
2024/04/09 04:49:00;;;;;;;5.50;1.45;;;14.70;99.90;;;;;;7324826;32;20254;-55
2024/04/09 04:53:01;;;;;;;6.12;1.60;;;14.70;99.90;;;;;;7335528;32;20171;-56
2024/04/09 04:57:02;;;;;;;9.18;1.55;;;14.60;99.90;;;;;;7333527;32;20274;-56
2024/04/09 05:01:03;;;;;;;5.65;1.45;;;14.50;99.90;;;;;;7321779;32;20198;-57
2024/04/09 05:05:05;;;;;;;6.68;1.40;;;14.50;99.90;;;;;;7332009;32;20875;-57
2024/04/09 05:09:07;;;;;;;5.72;1.30;;;14.50;99.90;;;;;;7325179;32;20206;-57
2024/04/09 05:13:08;;;;;;;7.55;1.65;;;14.50;99.90;;;;;;7328515;32;20186;-57
2024/04/09 05:17:09;;;;;;;7.95;1.77;;;14.50;99.90;;;;;;7330410;32;20441;-57
2024/04/09 05:21:10;;;;;;;5.60;1.35;;;14.40;99.90;;;;;;7327276;32;20932;-57
2024/04/09 05:25:12;;;;;;;6.25;1.92;;;14.30;99.90;;;;;;7336684;32;20146;-58
2024/04/09 05:29:12;;;;;;;6.47;2.30;;;14.10;99.90;;;;;;7346943;32;20240;-58
2024/04/09 05:33:13;;;;;;;4.60;2.17;;;14.00;99.90;;;;;;7340695;32;20127;-58
2024/04/09 05:37:15;;;;;;;3.90;1.80;;;14.00;99.90;;;;;;7327922;32;20988;-56
2024/04/09 05:41:16;;;;;;;5.78;1.77;;;13.90;99.90;;;;;;7338598;32;20551;-55
2024/04/09 05:45:21;;;;;;;5.70;1.85;;;14.00;99.90;;;;;;7340736;32;20111;-57
2024/04/09 05:49:23;;;;;;;16.85;9.77;;;14.00;99.90;;;;;;7345040;32;20210;-56
2024/04/09 05:53:24;;;;;;;4.20;1.70;;;14.00;99.90;;;;;;7345859;32;20225;-57
2024/04/09 05:57:24;;;;;;;9.95;1.90;;;14.00;99.90;;;;;;7341251;32;20306;-58
2024/04/09 06:01:26;;;;;;;5.50;1.73;;;13.90;99.90;;;;;;7337374;32;20231;-57
2024/04/09 06:05:27;;;;;;;5.45;1.90;;;13.90;99.90;;;;;;7332131;32;20149;-57
2024/04/09 06:09:27;;;;;;;5.55;2.00;;;13.90;99.90;;;;;;7344012;32;20156;-56
2024/04/09 06:13:29;;;;;;;3.65;2.35;;;13.90;99.90;;;;;;7343562;32;20226;-56
2024/04/09 06:17:29;;;;;;;5.62;1.77;;;13.90;99.90;;;;;;7346660;32;20253;-56
2024/04/09 06:21:30;;;;;;;5.10;1.60;;;13.80;99.90;;;;;;7338730;32;20503;-56
2024/04/09 06:25:31;;;;;;;4.93;1.45;;;13.80;99.90;;;;;;7345090;32;20137;-57
2024/04/09 06:29:32;;;;;;;3.08;1.20;;;13.60;99.90;;;;;;7343340;32;20988;-57
2024/04/09 06:33:33;;;;;;;7.37;1.50;;;13.60;99.90;;;;;;7341530;32;20333;-56
2024/04/09 06:37:37;;;;;;;4.50;1.20;;;13.50;99.90;;;;;;7324007;32;20225;-57
2024/04/09 06:41:38;;;;;;;4.32;1.25;;;13.40;99.90;;;;;;7327636;32;20201;-57
2024/04/09 06:45:40;;;;;;;3.40;1.42;;;13.30;99.90;;;;;;7329433;32;20221;-57
2024/04/09 06:49:43;;;;;;;6.57;1.85;;;13.30;99.90;;;;;;7332697;32;20247;-57
2024/04/09 06:53:43;;;;;;;4.78;1.35;;;13.20;99.90;;;;;;7330922;32;20228;-57
2024/04/09 06:57:45;;;;;;;3.85;0.82;;;13.10;99.90;;;;;;7333170;32;20272;-57
2024/04/09 07:01:46;;;;;;;4.95;0.90;;;12.70;99.90;;;;;;7332164;32;20261;-57
2024/04/09 07:05:46;;;;;;;2.92;0.60;;;12.50;99.90;;;;;;7329997;32;20803;-57
2024/04/09 07:09:47;;;;;;;4.12;0.68;;;12.40;99.90;;;;;;7323035;32;20651;-57
2024/04/09 07:13:48;;;;;;;2.42;1.12;;;12.30;99.90;;;;;;7331178;32;20270;-57
2024/04/09 07:17:50;;;;;;;3.80;0.70;;;12.10;99.90;;;;;;7327736;32;20346;-57
2024/04/09 07:21:50;;;;;;;4.35;0.50;;;12.00;99.90;;;;;;7330658;32;20699;-57
2024/04/09 07:25:52;;;;;;;3.60;0.45;;;11.90;99.90;;;;;;7319692;32;20229;-57
2024/04/09 07:29:52;;;;;;;3.42;0.80;;;11.80;99.90;;;;;;7327266;32;20202;-57
2024/04/09 07:33:54;;;;;;;2.05;0.60;;;11.80;99.90;;;;;;7331479;32;20592;-57
2024/04/09 07:37:55;;;;;;;5.30;1.65;;;11.70;99.90;;;;;;7329208;32;20438;-57
2024/04/09 07:41:56;;;;;;;6.00;0.77;;;11.80;99.90;;;;;;7327179;32;20645;-57
2024/04/09 07:45:57;;;;;;;4.20;1.00;;;11.80;99.90;;;;;;7330330;32;20269;-57
2024/04/09 07:49:58;;;;;;;4.40;0.90;;;11.80;99.90;;;;;;7330997;32;20258;-57
2024/04/09 07:54:00;;;;;;;3.53;0.70;;;11.80;99.90;;;;;;7328082;32;20562;-58
2024/04/09 07:58:02;;;;;;;3.58;0.80;;;11.80;99.90;;;;;;7331426;32;20266;-57
2024/04/09 08:02:03;;;;;;;6.97;1.23;;;11.90;99.90;;;;;;7330421;32;20197;-57
2024/04/09 08:06:06;;;;;;;4.32;0.90;;;12.00;99.90;;;;;;7331909;32;20226;-57
2024/04/09 08:10:13;;;;;;;4.72;0.98;;;12.10;99.90;;;;;;7332872;32;20213;-57
2024/04/09 08:14:15;;;;;;;7.68;0.85;;;12.30;99.90;;;;;;7330302;32;20232;-57
2024/04/09 08:18:16;;;;;;;9.00;0.75;;;12.50;99.90;;;;;;7332183;32;21127;-57
2024/04/09 08:22:17;;;;;;;4.87;0.80;;;12.70;99.90;;;;;;7334648;32;20415;-57
2024/04/09 08:26:18;;;;;;;2.50;0.80;;;12.80;99.90;;;;;;7331855;32;20172;-57
2024/04/09 08:30:23;;;;;;;5.68;1.05;;;12.70;99.90;;;;;;7330011;32;20374;-57
2024/04/09 08:34:24;;;;;;;3.53;0.90;;;12.60;99.90;;;;;;7332113;32;20233;-57
2024/04/09 08:38:25;;;;;;;2.50;0.70;;;12.60;99.90;;;;;;7332056;32;20191;-58
2024/04/09 08:42:26;;;;;;;7.22;0.88;;;12.70;99.90;;;;;;7335090;32;20255;-57
2024/04/09 08:46:31;;;;;;;5.75;0.93;;;12.70;99.90;;;;;;7338330;32;20142;-57
2024/04/09 08:50:32;;;;;;;3.83;0.75;;;12.70;99.90;;;;;;7331260;32;20306;-57
2024/04/09 08:54:33;;;;;;;5.15;0.77;;;12.60;99.90;;;;;;7335997;32;20114;-57
2024/04/09 08:58:34;;;;;;;1.77;0.68;;;12.80;99.90;;;;;;7335335;32;20313;-58
2024/04/09 09:02:35;;;;;;;4.20;0.60;;;12.90;99.90;;;;;;7335313;32;20103;-58
2024/04/09 09:06:45;;;;;;;5.72;0.80;;;12.90;99.90;;;;;;7344810;32;20534;-57
2024/04/09 09:10:54;;;;;;;2.97;0.57;;;12.80;99.90;;;;;;7337635;32;20516;-57
2024/04/09 09:14:56;;;;;;;6.18;0.70;;;12.90;99.90;;;;;;7329704;32;20212;-57
2024/04/09 09:19:05;;;;;;;1.37;0.40;;;12.90;99.90;;;;;;7326466;32;20230;-57
2024/04/09 09:23:06;;;;;;;3.35;1.02;;;12.80;99.90;;;;;;7331304;32;20218;-57
2024/04/09 09:27:08;;;;;;;4.32;0.73;;;12.50;99.90;;;;;;7323639;32;20586;-57
2024/04/09 09:31:10;;;;;;;2.92;0.75;;;12.50;99.90;;;;;;7333350;32;21284;-57
2024/04/09 09:35:17;;;;;;;4.90;0.80;;;12.40;99.90;;;;;;7327736;32;20270;-57
2024/04/09 09:39:20;;;;;;;;;;;12.40;99.90;;;;;;7332025;32;21577;-57
2024/04/09 09:43:22;;;;;;;5.20;0.80;;;12.20;99.90;;;;;;7330267;32;20170;-56
2024/04/09 09:47:24;;;;;;;10.73;0.98;;;12.10;99.90;;;;;;7325256;32;20226;-57
2024/04/09 09:51:25;;;;;;;1.98;0.50;;;12.00;99.90;;;;;;7326752;32;20221;-57
2024/04/09 09:55:27;;;;;;;3.42;0.65;;;12.00;99.90;;;;;;7329675;32;20495;-57
2024/04/09 09:59:35;;;;;;;5.37;0.57;;;12.20;99.90;;;;;;7331144;32;20224;-58
2024/04/09 10:03:36;;;;;;;5.85;0.82;;;12.90;99.90;;;;;;7331511;32;20220;-57
2024/04/09 10:07:37;;;;;;;5.70;0.70;;;13.90;99.90;;;;;;7333890;32;20566;-58
2024/04/09 10:11:43;;;;;;;2.08;0.62;;;15.00;99.90;;;;;;7331939;32;20273;-57
2024/04/09 10:15:48;;;;;;;2.42;0.60;;;15.90;99.90;;;;;;7337786;32;20286;-57
2024/04/09 10:19:48;;;;;;;5.50;0.80;;;16.50;99.90;;;;;;7344411;32;20127;-56
2024/04/09 10:23:49;;;;;;;5.35;0.60;;;16.40;99.90;;;;;;7345616;32;20525;-56
2024/04/09 10:28:08;;;;;;;3.67;0.90;;;15.80;99.90;;;;;;7347414;32;20198;-56
2024/04/09 10:32:13;;;;;;;4.57;0.70;;;15.20;99.90;;;;;;7346861;32;20577;-59
2024/04/09 10:36:14;;;;;;;5.45;0.85;;;15.60;99.90;;;;;;7326865;32;20720;-57
2024/04/09 10:40:15;;;;;;;4.90;0.70;;;15.70;99.90;;;;;;7330555;32;20245;-57
2024/04/09 10:44:18;;;;;;;8.65;1.02;;;15.50;99.90;;;;;;7328836;32;20367;-57
2024/04/09 10:48:19;;;;;;;3.67;0.68;;;15.10;99.90;;;;;;7332513;32;20290;-57
2024/04/09 10:52:20;;;;;;;3.10;0.70;;;14.60;99.90;;;;;;7327945;32;20637;-57
2024/04/09 10:56:20;;;;;;;6.85;1.23;;;14.40;99.90;;;;;;7328223;32;20240;-57
2024/04/09 11:00:21;;;;;;;4.35;0.75;;;14.10;99.90;;;;;;7332597;32;20206;-58
2024/04/09 11:04:23;;;;;;;4.35;0.70;;;13.90;99.90;;;;;;7330990;32;20191;-58
2024/04/09 11:08:25;;;;;;;5.18;0.88;;;13.90;99.90;;;;;;7339703;32;20539;-58
2024/04/09 11:12:28;;;;;;;3.50;0.70;;;13.80;99.90;;;;;;7342974;32;20123;-57
2024/04/09 11:16:28;;;;;;;3.58;0.70;;;14.00;99.90;;;;;;7344611;32;20141;-56
2024/04/09 11:20:29;;;;;;;3.62;0.90;;;14.20;99.90;;;;;;7346987;32;20155;-57
2024/04/09 11:24:30;;;;;;;5.78;0.82;;;14.20;99.90;;;;;;7342904;32;20126;-57
2024/04/09 11:28:31;;;;;;;7.70;0.60;;;14.20;99.90;;;;;;7347634;32;20386;-58
2024/04/09 11:32:32;;;;;;;2.10;0.60;;;14.10;99.90;;;;;;7344896;32;20610;-58
2024/04/09 11:36:34;;;;;;;3.75;0.90;;;14.00;99.90;;;;;;7340663;32;20126;-58
2024/04/09 11:40:35;;;;;;;9.52;1.00;;;14.00;99.90;;;;;;7338408;32;20139;-58
2024/04/09 11:44:36;;;;;;;5.15;0.77;;;13.90;99.90;;;;;;7342796;32;20172;-58
2024/04/09 11:48:37;;;;;;;4.65;0.75;;;14.10;99.90;;;;;;7334463;32;20111;-56
2024/04/09 11:52:38;;;;;;;6.95;0.85;;;14.30;99.90;;;;;;7342951;32;20103;-55
2024/04/09 11:56:39;;;;;;;4.10;0.85;;;14.50;99.90;;;;;;7341521;32;20127;-58
2024/04/09 12:00:39;;;;;;;5.12;0.75;;;14.50;99.90;;;;;;7340917;32;20696;-57
2024/04/09 12:04:40;;;;;;;3.67;0.68;;;14.40;99.90;;;;;;7338574;32;20108;-56
2024/04/09 12:08:41;;;;;;;4.00;0.73;;;14.30;99.90;;;;;;7340016;32;20120;-57
2024/04/09 12:12:42;;;;;;;7.82;1.12;;;14.00;99.90;;;;;;7340789;32;20197;-58
2024/04/09 12:16:43;;;;;;;5.43;0.80;;;14.20;99.90;;;;;;7326180;32;20469;-58
2024/04/09 12:20:44;;;;;;;6.82;0.68;;;14.70;99.90;;;;;;7323557;32;20111;-57
2024/04/09 12:24:45;;;;;;;2.55;0.73;;;14.90;99.90;;;;;;7331504;32;20797;-57
2024/04/09 12:28:46;;;;;;;6.10;0.70;;;14.90;99.90;;;;;;7336032;32;20141;-57
2024/04/09 12:32:47;;;;;;;8.60;0.85;;;14.80;99.90;;;;;;7326100;32;20565;-61
2024/04/09 12:36:48;;;;;;;8.60;0.70;;;14.80;99.90;;;;;;7325325;32;20285;-63
2024/04/09 12:40:49;;;;;;;8.95;1.00;;;14.70;99.90;;;;;;7329711;32;20135;-62
2024/04/09 12:44:50;;;;;;;7.68;0.62;;;15.00;99.90;;;;;;7336790;32;20107;-62
2024/04/09 12:48:51;;;;;;;5.10;0.70;;;14.90;99.90;;;;;;7337304;32;20136;-62
2024/04/09 12:52:51;;;;;;;5.85;0.70;;;14.60;99.90;;;;;;7328986;32;20103;-62
2024/04/09 12:56:52;;;;;;;4.40;0.73;;;14.60;99.90;;;;;;7339398;32;20254;-62
2024/04/09 13:00:53;;;;;;;7.75;1.55;;;14.50;99.90;;;;;;7339526;32;20603;-57
2024/04/09 13:04:54;;;;;;;6.53;1.08;;;14.40;99.90;;;;;;7334610;32;20408;-60
2024/04/09 13:08:56;;;;;;;4.72;0.70;;;14.20;99.90;;;;;;7327805;32;20380;-58
2024/04/09 13:12:56;;;;;;;6.03;0.70;;;14.30;99.90;;;;;;7326101;32;20222;-57
2024/04/09 13:16:57;;;;;;;4.47;0.98;;;14.30;99.90;;;;;;7333064;32;20233;-58
2024/04/09 13:20:58;;;;;;;5.62;0.60;;;14.40;99.90;;;;;;7334905;32;20445;-58
2024/04/09 13:24:59;;;;;;;3.85;0.82;;;14.60;99.90;;;;;;7325740;32;20178;-58
2024/04/09 13:29:00;;;;;;;8.52;0.90;;;14.90;99.90;;;;;;7327812;32;20301;-56
2024/04/09 13:33:01;;;;;;;5.80;1.10;;;15.10;99.90;;;;;;7335496;32;20220;-58
2024/04/09 13:37:02;;;;;;;5.37;0.93;;;15.20;99.90;;;;;;7331997;32;20206;-58
2024/04/09 13:41:03;;;;;;;7.82;0.90;;;15.40;99.90;;;;;;7327546;32;20337;-56
2024/04/09 13:45:04;;;;;;;8.27;0.95;;;15.10;99.90;;;;;;7336134;32;20130;-56
2024/04/09 13:49:05;;;;;;;6.32;1.00;;;15.00;99.90;;;;;;7331566;32;20509;-59
2024/04/09 13:53:07;;;;;;;6.05;1.00;;;14.90;99.90;;;;;;7327078;32;20221;-58
2024/04/09 13:57:08;;;;;;;4.32;0.60;;;14.80;99.90;;;;;;7335957;32;20210;-58
2024/04/09 14:01:08;;;;;;;8.25;1.12;;;14.60;99.90;;;;;;7329941;32;20909;-57
2024/04/09 14:05:09;;;;;;;9.27;1.15;;;14.30;99.90;;;;;;7332861;32;20535;-58
2024/04/09 14:09:10;;;;;;;7.70;1.27;;;14.60;99.90;;;;;;7325312;32;20287;-58
2024/04/09 14:13:12;;;;;;;6.87;0.75;;;14.50;99.90;;;;;;7335851;32;20217;-57
2024/04/09 14:17:12;;;;;;;3.30;0.70;;;14.40;99.90;;;;;;7331885;32;20218;-58
2024/04/09 14:21:13;;;;;;;5.35;0.68;;;14.50;99.90;;;;;;7334940;32;20250;-57
2024/04/09 14:25:15;;;;;;;4.18;0.88;;;14.40;99.90;;;;;;7331252;32;20265;-57
2024/04/09 14:29:15;;;;;;;4.10;1.05;;;14.60;99.90;;;;;;7336440;32;20256;-56
2024/04/09 14:33:16;;;;;;;7.95;0.95;;;14.70;99.90;;;;;;7338837;32;20125;-56
2024/04/09 14:37:18;;;;;;;3.70;0.93;;;14.60;99.90;;;;;;7341422;32;20164;-56
2024/04/09 14:41:21;;;;;;;4.65;0.60;;;14.50;99.90;;;;;;7344367;32;20506;-56
2024/04/09 14:45:22;;;;;;;2.37;0.73;;;14.40;99.90;;;;;;7339057;32;20218;-57
2024/04/09 14:49:23;;;;;;;3.72;0.75;;;14.30;99.90;;;;;;7338949;32;20201;-56
2024/04/09 14:53:23;;;;;;;2.42;0.47;;;14.20;99.90;;;;;;7343274;32;20118;-57
2024/04/09 14:57:24;;;;;;;3.90;0.50;;;14.20;99.90;;;;;;7343758;32;20221;-56
2024/04/09 15:01:25;;;;;;;2.97;0.50;;;14.10;99.90;;;;;;7341165;32;20107;-58
2024/04/09 15:05:26;;;;;;;4.32;0.65;;;14.10;99.90;;;;;;7337733;32;20551;-57
2024/04/09 15:09:27;;;;;;;3.10;0.65;;;14.00;99.90;;;;;;7337065;32;20115;-58
2024/04/09 15:13:30;;;;;;;2.17;0.65;;;14.00;99.90;;;;;;7337842;32;20226;-57
2024/04/09 15:17:31;;;;;;;5.22;0.50;;;13.80;99.90;;;;;;7338480;32;21222;-58
2024/04/09 15:21:31;;;;;;;5.35;0.62;;;13.80;99.90;;;;;;7332580;32;21313;-58
2024/04/09 15:25:32;;;;;;;5.03;0.65;;;13.70;99.90;;;;;;7327953;32;20211;-58
2024/04/09 15:29:33;;;;;;;2.53;0.40;;;13.60;99.90;;;;;;7333096;32;20276;-57
2024/04/09 15:33:34;;;;;;;2.17;0.50;;;13.30;99.90;;;;;;7324865;32;20246;-57
2024/04/09 15:37:36;;;;;;;4.47;0.60;;;13.10;99.90;;;;;;7332700;32;20279;-57
2024/04/09 15:41:37;;;;;;;6.95;0.80;;;13.10;99.90;;;;;;7333364;32;20228;-58
2024/04/09 15:45:39;;;;;;;4.32;0.60;;;13.20;99.90;;;;;;7330877;32;20576;-57
2024/04/09 15:49:40;;;;;;;5.60;0.60;;;13.40;99.90;;;;;;7333445;32;20277;-57
2024/04/09 15:53:41;;;;;;;4.68;0.65;;;13.50;99.90;;;;;;7330498;32;20310;-55
2024/04/09 15:57:42;;;;;;;4.37;0.73;;;13.50;99.90;;;;;;7325574;32;20342;-56
2024/04/09 16:01:47;;;;;;;3.17;0.50;;;13.50;99.90;;;;;;7332009;32;20194;-57
2024/04/09 16:05:48;;;;;;;3.90;0.60;;;13.30;99.90;;;;;;7325528;32;20575;-57
2024/04/09 16:09:49;;;;;;;3.25;0.60;;;13.20;99.90;;;;;;7333524;32;20205;-57
2024/04/09 16:13:50;;;;;;;5.30;0.70;;;13.20;99.90;;;;;;7327594;32;20209;-57
2024/04/09 16:17:51;;;;;;;4.30;0.80;;;13.10;99.90;;;;;;7323287;32;20237;-58
2024/04/09 16:21:52;;;;;;;4.65;0.80;;;12.90;99.90;;;;;;7325576;32;20264;-57
2024/04/09 16:26:05;;;;;;;4.03;0.77;;;12.80;99.90;;;;;;7327915;32;20256;-57
2024/04/09 16:30:06;;;;;;;4.82;0.73;;;12.80;99.90;;;;;;7323762;32;20343;-58
2024/04/09 16:34:07;;;;;;;3.37;0.80;;;12.80;99.90;;;;;;7329241;32;20317;-57
2024/04/09 16:38:08;;;;;;;3.95;0.95;;;12.90;99.90;;;;;;7329091;32;20218;-58
2024/04/09 16:42:09;;;;;;;4.97;0.68;;;12.90;99.90;;;;;;7327727;32;20224;-57
2024/04/09 16:46:11;;;;;;;1.80;0.62;;;13.00;99.90;;;;;;7332822;32;20349;-57
2024/04/09 16:50:13;;;;;;;3.30;0.68;;;12.90;99.90;;;;;;7328893;32;20214;-57
2024/04/09 16:54:14;;;;;;;5.03;0.80;;;12.90;99.90;;;;;;7330421;32;20254;-58
2024/04/09 16:58:15;;;;;;;5.75;0.70;;;12.80;99.90;;;;;;7332269;32;20130;-58
2024/04/09 17:02:16;;;;;;;3.60;0.95;;;12.70;99.90;;;;;;7342553;32;20155;-57
2024/04/09 17:06:16;;;;;;;5.95;1.20;;;12.70;99.90;;;;;;7340537;32;20108;-57
2024/04/09 17:10:17;;;;;;;3.92;0.90;;;12.60;99.90;;;;;;7337069;32;20124;-58
2024/04/09 17:14:23;;;;;;;2.78;0.70;;;12.60;99.90;;;;;;7340481;32;20141;-57
2024/04/09 17:18:23;;;;;;;4.97;0.93;;;12.60;99.90;;;;;;7348496;32;20142;-57
2024/04/09 17:22:26;;;;;;;4.37;0.85;;;12.60;99.90;;;;;;7342614;32;20119;-57
2024/04/09 17:26:28;;;;;;;6.72;0.70;;;12.60;99.90;;;;;;7337231;32;20263;-57
2024/04/09 17:30:28;;;;;;;4.78;1.00;;;12.60;99.90;;;;;;7348446;32;20516;-58
2024/04/09 17:34:29;;;;;;;3.33;0.60;;;12.50;99.90;;;;;;7343774;32;20214;-57
2024/04/09 17:38:30;;;;;;;5.60;0.93;;;12.50;99.90;;;;;;7346923;32;20598;-59
2024/04/09 17:42:31;;;;;;;2.53;0.82;;;12.50;99.90;;;;;;7345190;32;20129;-57
2024/04/09 17:46:32;;;;;;;1.20;0.40;;;12.50;99.90;;;;;;7345604;32;20198;-58
2024/04/09 17:50:33;;;;;;;2.75;0.50;;;12.30;99.90;;;;;;7341154;32;20257;-57
2024/04/09 17:54:34;;;;;;;3.00;0.57;;;12.30;99.90;;;;;;7349545;32;20192;-58
2024/04/09 17:58:35;;;;;;;4.82;0.45;;;12.20;99.90;;;;;;7348098;32;20119;-57
2024/04/09 18:02:36;;;;;;;2.92;0.45;;;12.10;99.90;;;;;;7340504;32;20383;-58
2024/04/09 18:06:37;;;;;;;1.60;0.50;;;12.00;99.90;;;;;;7345523;32;20115;-58
2024/04/09 18:10:38;;;;;;;1.70;0.60;;;12.00;99.90;;;;;;7346101;32;20133;-58
2024/04/09 18:14:39;;;;;;;3.05;0.60;;;12.00;99.90;;;;;;7339509;32;20181;-58
2024/04/09 18:18:45;;;;;;;1.85;0.35;;;12.00;99.90;;;;;;7333004;32;20483;-58
2024/04/09 18:22:46;;;;;;;2.10;0.32;;;12.00;99.90;;;;;;7343978;32;20449;-57
2024/04/09 18:26:47;;;;;;;3.65;0.85;;;11.80;99.90;;;;;;7344181;32;20125;-58
2024/04/09 18:30:58;;;;;;;2.45;0.50;;;11.70;99.90;;;;;;7341671;32;20832;-56
2024/04/09 18:34:59;;;;;;;1.85;0.70;;;11.60;99.90;;;;;;7331235;32;20219;-58
2024/04/09 18:39:04;;;;;;;1.85;0.50;;;11.50;99.90;;;;;;7340064;32;20543;-57
2024/04/09 18:43:06;;;;;;;2.97;0.80;;;11.40;99.90;;;;;;7338498;32;20252;-56
2024/04/09 18:47:07;;;;;;;3.08;0.60;;;11.40;99.90;;;;;;7346982;32;20115;-57
2024/04/09 18:51:10;;;;;;;3.47;0.70;;;11.30;99.90;;;;;;7348516;32;20129;-57
2024/04/09 18:55:11;;;;;;;2.65;0.62;;;11.30;99.90;;;;;;7336430;32;20441;-58
2024/04/09 18:59:12;;;;;;;4.45;0.50;;;11.30;99.90;;;;;;7344182;32;20184;-57
2024/04/09 19:03:13;;;;;;;3.35;0.70;;;11.20;99.90;;;;;;7326562;32;20292;-56
2024/04/09 19:07:14;;;;;;;2.05;0.60;;;11.10;99.90;;;;;;7324400;32;20273;-57
2024/04/09 19:11:15;;;;;;;2.55;0.60;;;11.10;99.90;;;;;;7330853;32;20300;-56
2024/04/09 19:15:16;;;;;;;3.95;0.77;;;11.10;99.90;;;;;;7329524;32;20164;-56
2024/04/09 19:19:18;;;;;;;2.05;0.70;;;11.00;99.90;;;;;;7320790;32;20186;-56
2024/04/09 19:23:19;;;;;;;7.55;0.73;;;10.90;99.90;;;;;;7328403;32;20277;-56
2024/04/09 19:27:20;;;;;;;3.03;0.70;;;10.90;99.90;;;;;;7322648;32;20254;-56
2024/04/09 19:31:21;;;;;;;1.40;0.50;;;10.90;99.90;;;;;;7330079;32;20204;-56
2024/04/09 19:35:22;;;;;;;3.28;0.68;;;10.80;99.90;;;;;;7326360;32;20796;-56
2024/04/09 19:39:23;;;;;;;2.60;0.82;;;10.90;99.90;;;;;;7325092;32;20228;-56
2024/04/09 19:43:24;;;;;;;4.93;0.90;;;10.90;99.90;;;;;;7331644;32;20239;-56
2024/04/09 19:47:25;;;;;;;5.15;0.95;;;11.00;99.90;;;;;;7330842;32;20591;-57
2024/04/09 19:51:26;;;;;;;4.78;0.85;;;11.00;99.90;;;;;;7329330;32;20198;-57
2024/04/09 19:55:27;;;;;;;3.55;0.60;;;11.00;99.90;;;;;;7326205;32;20216;-56
2024/04/09 19:59:28;;;;;;;6.70;0.75;;;11.00;99.90;;;;;;7330254;32;20243;-57
2024/04/09 20:03:29;;;;;;;4.82;0.80;;;10.90;99.90;;;;;;7329680;32;20382;-56
2024/04/09 20:07:30;;;;;;;4.70;0.93;;;10.90;99.90;;;;;;7328917;32;20316;-57
2024/04/09 20:11:31;;;;;;;5.90;0.90;;;10.80;99.90;;;;;;7337695;32;20126;-56
2024/04/09 20:15:32;;;;;;;8.27;0.95;;;10.80;99.90;;;;;;7341306;32;20401;-56
2024/04/09 20:19:33;;;;;;;3.95;0.85;;;10.80;99.90;;;;;;7336295;32;20868;-56
2024/04/09 20:23:34;;;;;;;3.67;1.00;;;10.80;99.90;;;;;;7338010;32;20654;-55
2024/04/09 20:27:35;;;;;;;5.07;0.90;;;10.80;99.90;;;;;;7334420;32;20308;-56
2024/04/09 20:31:40;;;;;;;5.00;1.05;;;10.90;99.90;;;;;;7342051;32;20107;-56
2024/04/09 20:35:41;;;;;;;3.37;0.62;;;10.80;99.90;;;;;;7346258;32;20119;-57
2024/04/09 20:39:42;;;;;;;5.05;0.85;;;10.80;99.90;;;;;;7334781;32;20613;-57
2024/04/09 20:43:43;;;;;;;6.28;1.00;;;10.80;99.90;;;;;;7343879;32;20509;-56
2024/04/09 20:47:44;;;;;;;7.22;1.10;;;10.80;99.90;;;;;;7336353;32;20810;-57
2024/04/09 20:51:45;;;;;;;3.62;0.88;;;10.70;99.90;;;;;;7321049;32;21313;-57
2024/04/09 20:55:46;;;;;;;4.80;0.95;;;10.60;99.90;;;;;;7329557;32;20384;-57